sensor_id;sensor_type;location;lat;lon;timestamp;P1;durP1;ratioP1;P2;durP2;ratioP2
69240;SDS011;56352;55.750;13.198;2024-02-15T00:02:23;24.75;;;9.65;;
69240;SDS011;56352;55.750;13.198;2024-02-15T00:04:49;22.30;;;9.85;;
69240;SDS011;56352;55.750;13.198;2024-02-15T00:07:16;25.27;;;9.85;;
69240;SDS011;56352;55.750;13.198;2024-02-15T00:09:43;23.58;;;8.85;;
69240;SDS011;56352;55.750;13.198;2024-02-15T00:12:09;27.95;;;10.65;;
69240;SDS011;56352;55.750;13.198;2024-02-15T00:14:36;27.83;;;10.25;;
69240;SDS011;56352;55.750;13.198;2024-02-15T00:17:04;24.17;;;9.60;;
69240;SDS011;56352;55.750;13.198;2024-02-15T00:19:31;28.65;;;11.05;;
69240;SDS011;56352;55.750;13.198;2024-02-15T00:21:58;24.92;;;9.55;;
69240;SDS011;56352;55.750;13.198;2024-02-15T00:24:25;23.20;;;8.95;;
69240;SDS011;56352;55.750;13.198;2024-02-15T00:26:53;23.02;;;8.80;;
69240;SDS011;56352;55.750;13.198;2024-02-15T00:29:20;24.73;;;9.30;;
69240;SDS011;56352;55.750;13.198;2024-02-15T00:31:47;22.88;;;9.07;;
69240;SDS011;56352;55.750;13.198;2024-02-15T00:34:16;23.90;;;9.18;;
69240;SDS011;56352;55.750;13.198;2024-02-15T00:36:43;19.75;;;8.77;;
69240;SDS011;56352;55.750;13.198;2024-02-15T00:39:10;22.35;;;8.57;;
69240;SDS011;56352;55.750;13.198;2024-02-15T00:41:38;21.40;;;9.15;;
69240;SDS011;56352;55.750;13.198;2024-02-15T00:44:08;22.35;;;8.73;;
69240;SDS011;56352;55.750;13.198;2024-02-15T00:46:37;20.17;;;8.48;;
69240;SDS011;56352;55.750;13.198;2024-02-15T00:49:04;20.85;;;8.82;;
69240;SDS011;56352;55.750;13.198;2024-02-15T00:51:35;26.60;;;9.00;;
69240;SDS011;56352;55.750;13.198;2024-02-15T00:54:02;17.20;;;7.50;;
69240;SDS011;56352;55.750;13.198;2024-02-15T00:56:29;20.90;;;9.20;;
69240;SDS011;56352;55.750;13.198;2024-02-15T00:59:01;20.80;;;8.85;;
69240;SDS011;56352;55.750;13.198;2024-02-15T01:01:27;20.42;;;8.35;;
69240;SDS011;56352;55.750;13.198;2024-02-15T01:03:54;24.25;;;9.82;;
69240;SDS011;56352;55.750;13.198;2024-02-15T01:06:21;24.35;;;9.57;;
69240;SDS011;56352;55.750;13.198;2024-02-15T01:08:49;25.10;;;10.40;;
69240;SDS011;56352;55.750;13.198;2024-02-15T01:11:15;24.90;;;9.23;;
69240;SDS011;56352;55.750;13.198;2024-02-15T01:13:42;21.88;;;7.95;;
69240;SDS011;56352;55.750;13.198;2024-02-15T01:16:11;25.10;;;9.75;;
69240;SDS011;56352;55.750;13.198;2024-02-15T01:18:37;20.27;;;8.57;;
69240;SDS011;56352;55.750;13.198;2024-02-15T01:21:04;22.40;;;9.40;;
69240;SDS011;56352;55.750;13.198;2024-02-15T01:23:32;23.17;;;9.18;;
69240;SDS011;56352;55.750;13.198;2024-02-15T01:26:03;19.17;;;8.90;;
69240;SDS011;56352;55.750;13.198;2024-02-15T01:28:31;25.23;;;9.73;;
69240;SDS011;56352;55.750;13.198;2024-02-15T01:30:58;25.23;;;9.95;;
69240;SDS011;56352;55.750;13.198;2024-02-15T01:33:28;26.58;;;9.48;;
69240;SDS011;56352;55.750;13.198;2024-02-15T01:35:55;22.30;;;10.48;;
69240;SDS011;56352;55.750;13.198;2024-02-15T01:38:22;24.40;;;9.55;;
69240;SDS011;56352;55.750;13.198;2024-02-15T01:40:49;26.92;;;10.15;;
69240;SDS011;56352;55.750;13.198;2024-02-15T01:43:16;23.20;;;9.80;;
69240;SDS011;56352;55.750;13.198;2024-02-15T01:45:42;28.08;;;10.23;;
69240;SDS011;56352;55.750;13.198;2024-02-15T01:48:09;24.70;;;9.95;;
69240;SDS011;56352;55.750;13.198;2024-02-15T01:50:37;23.58;;;10.35;;
69240;SDS011;56352;55.750;13.198;2024-02-15T01:53:04;24.27;;;10.20;;
69240;SDS011;56352;55.750;13.198;2024-02-15T01:55:33;23.35;;;9.85;;
69240;SDS011;56352;55.750;13.198;2024-02-15T01:58:01;25.33;;;10.32;;
69240;SDS011;56352;55.750;13.198;2024-02-15T02:00:28;28.63;;;11.00;;
69240;SDS011;56352;55.750;13.198;2024-02-15T02:02:57;23.67;;;10.35;;
69240;SDS011;56352;55.750;13.198;2024-02-15T02:05:29;21.38;;;9.82;;
69240;SDS011;56352;55.750;13.198;2024-02-15T02:07:57;22.75;;;10.15;;
69240;SDS011;56352;55.750;13.198;2024-02-15T02:10:28;24.65;;;10.32;;
69240;SDS011;56352;55.750;13.198;2024-02-15T02:13:00;23.98;;;10.85;;
69240;SDS011;56352;55.750;13.198;2024-02-15T02:15:31;25.92;;;10.90;;
69240;SDS011;56352;55.750;13.198;2024-02-15T02:17:58;28.65;;;11.55;;
69240;SDS011;56352;55.750;13.198;2024-02-15T02:20:26;21.45;;;9.57;;
69240;SDS011;56352;55.750;13.198;2024-02-15T02:22:54;23.80;;;10.38;;
69240;SDS011;56352;55.750;13.198;2024-02-15T02:25:22;22.55;;;9.43;;
69240;SDS011;56352;55.750;13.198;2024-02-15T02:27:54;21.58;;;8.68;;
69240;SDS011;56352;55.750;13.198;2024-02-15T02:30:21;19.55;;;8.55;;
69240;SDS011;56352;55.750;13.198;2024-02-15T02:32:48;25.70;;;10.05;;
69240;SDS011;56352;55.750;13.198;2024-02-15T02:35:15;26.83;;;9.40;;
69240;SDS011;56352;55.750;13.198;2024-02-15T02:37:46;21.38;;;8.18;;
69240;SDS011;56352;55.750;13.198;2024-02-15T02:40:13;20.02;;;8.55;;
69240;SDS011;56352;55.750;13.198;2024-02-15T02:42:47;21.55;;;8.65;;
69240;SDS011;56352;55.750;13.198;2024-02-15T02:45:15;19.27;;;8.32;;
69240;SDS011;56352;55.750;13.198;2024-02-15T02:47:42;24.85;;;8.95;;
69240;SDS011;56352;55.750;13.198;2024-02-15T02:50:11;22.88;;;8.57;;
69240;SDS011;56352;55.750;13.198;2024-02-15T02:52:38;22.98;;;9.20;;
69240;SDS011;56352;55.750;13.198;2024-02-15T02:55:05;22.15;;;7.95;;
69240;SDS011;56352;55.750;13.198;2024-02-15T02:57:35;22.77;;;8.57;;
69240;SDS011;56352;55.750;13.198;2024-02-15T03:00:06;22.58;;;8.35;;
69240;SDS011;56352;55.750;13.198;2024-02-15T03:02:39;21.80;;;8.63;;
69240;SDS011;56352;55.750;13.198;2024-02-15T03:05:07;24.25;;;10.00;;
69240;SDS011;56352;55.750;13.198;2024-02-15T03:07:35;19.40;;;8.70;;
69240;SDS011;56352;55.750;13.198;2024-02-15T03:10:03;18.67;;;7.97;;
69240;SDS011;56352;55.750;13.198;2024-02-15T03:12:31;20.13;;;8.85;;
69240;SDS011;56352;55.750;13.198;2024-02-15T03:14:57;23.00;;;9.18;;
69240;SDS011;56352;55.750;13.198;2024-02-15T03:17:24;19.10;;;8.40;;
69240;SDS011;56352;55.750;13.198;2024-02-15T03:19:51;18.40;;;8.05;;
69240;SDS011;56352;55.750;13.198;2024-02-15T03:22:18;19.55;;;8.73;;
69240;SDS011;56352;55.750;13.198;2024-02-15T03:24:44;17.98;;;8.35;;
69240;SDS011;56352;55.750;13.198;2024-02-15T03:27:11;20.63;;;8.57;;
69240;SDS011;56352;55.750;13.198;2024-02-15T03:29:38;17.00;;;8.50;;
69240;SDS011;56352;55.750;13.198;2024-02-15T03:32:05;14.57;;;7.38;;
69240;SDS011;56352;55.750;13.198;2024-02-15T03:34:32;18.40;;;8.02;;
69240;SDS011;56352;55.750;13.198;2024-02-15T03:36:59;15.85;;;8.73;;
69240;SDS011;56352;55.750;13.198;2024-02-15T03:39:30;14.68;;;7.45;;
69240;SDS011;56352;55.750;13.198;2024-02-15T03:41:56;15.50;;;7.63;;
69240;SDS011;56352;55.750;13.198;2024-02-15T03:44:25;13.48;;;7.60;;
69240;SDS011;56352;55.750;13.198;2024-02-15T03:46:52;14.38;;;7.53;;
69240;SDS011;56352;55.750;13.198;2024-02-15T03:49:21;16.83;;;7.20;;
69240;SDS011;56352;55.750;13.198;2024-02-15T03:51:49;17.77;;;7.72;;
69240;SDS011;56352;55.750;13.198;2024-02-15T03:54:15;14.68;;;7.30;;
69240;SDS011;56352;55.750;13.198;2024-02-15T03:56:51;15.45;;;7.90;;
69240;SDS011;56352;55.750;13.198;2024-02-15T03:59:19;14.60;;;7.13;;
69240;SDS011;56352;55.750;13.198;2024-02-15T04:01:53;13.07;;;6.45;;
69240;SDS011;56352;55.750;13.198;2024-02-15T04:04:20;19.20;;;7.30;;
69240;SDS011;56352;55.750;13.198;2024-02-15T04:06:50;16.98;;;7.82;;
69240;SDS011;56352;55.750;13.198;2024-02-15T04:09:20;15.93;;;6.70;;
69240;SDS011;56352;55.750;13.198;2024-02-15T04:11:47;17.42;;;7.88;;
69240;SDS011;56352;55.750;13.198;2024-02-15T04:14:19;18.67;;;8.38;;
69240;SDS011;56352;55.750;13.198;2024-02-15T04:16:47;16.48;;;7.10;;
69240;SDS011;56352;55.750;13.198;2024-02-15T04:19:14;15.65;;;7.22;;
69240;SDS011;56352;55.750;13.198;2024-02-15T04:21:41;14.57;;;6.90;;
69240;SDS011;56352;55.750;13.198;2024-02-15T04:24:10;14.45;;;7.00;;
69240;SDS011;56352;55.750;13.198;2024-02-15T04:26:38;14.90;;;6.90;;
69240;SDS011;56352;55.750;13.198;2024-02-15T04:29:05;13.65;;;7.43;;
69240;SDS011;56352;55.750;13.198;2024-02-15T04:31:35;15.50;;;6.97;;
69240;SDS011;56352;55.750;13.198;2024-02-15T04:34:05;13.30;;;6.72;;
69240;SDS011;56352;55.750;13.198;2024-02-15T04:36:32;16.70;;;7.18;;
69240;SDS011;56352;55.750;13.198;2024-02-15T04:39:00;14.15;;;7.03;;
69240;SDS011;56352;55.750;13.198;2024-02-15T04:41:29;14.18;;;6.38;;
69240;SDS011;56352;55.750;13.198;2024-02-15T04:43:56;12.55;;;6.45;;
69240;SDS011;56352;55.750;13.198;2024-02-15T04:46:23;12.43;;;6.90;;
69240;SDS011;56352;55.750;13.198;2024-02-15T04:48:50;14.10;;;7.32;;
69240;SDS011;56352;55.750;13.198;2024-02-15T04:51:17;12.10;;;6.40;;
69240;SDS011;56352;55.750;13.198;2024-02-15T04:53:46;14.20;;;6.88;;
69240;SDS011;56352;55.750;13.198;2024-02-15T04:56:14;13.60;;;7.03;;
69240;SDS011;56352;55.750;13.198;2024-02-15T04:58:41;11.07;;;6.55;;
69240;SDS011;56352;55.750;13.198;2024-02-15T05:01:17;12.57;;;6.63;;
69240;SDS011;56352;55.750;13.198;2024-02-15T05:03:44;11.77;;;6.60;;
69240;SDS011;56352;55.750;13.198;2024-02-15T05:06:11;12.70;;;6.53;;
69240;SDS011;56352;55.750;13.198;2024-02-15T05:08:41;12.32;;;6.82;;
69240;SDS011;56352;55.750;13.198;2024-02-15T05:11:11;13.93;;;6.60;;
69240;SDS011;56352;55.750;13.198;2024-02-15T05:13:46;11.15;;;6.18;;
69240;SDS011;56352;55.750;13.198;2024-02-15T05:16:13;11.15;;;5.93;;
69240;SDS011;56352;55.750;13.198;2024-02-15T05:18:39;11.63;;;6.78;;
69240;SDS011;56352;55.750;13.198;2024-02-15T05:21:06;13.57;;;7.15;;
69240;SDS011;56352;55.750;13.198;2024-02-15T05:23:37;13.57;;;6.80;;
69240;SDS011;56352;55.750;13.198;2024-02-15T05:26:06;12.50;;;6.38;;
69240;SDS011;56352;55.750;13.198;2024-02-15T05:28:34;11.98;;;6.35;;
69240;SDS011;56352;55.750;13.198;2024-02-15T05:31:19;12.35;;;6.32;;
69240;SDS011;56352;55.750;13.198;2024-02-15T05:33:47;12.18;;;6.32;;
69240;SDS011;56352;55.750;13.198;2024-02-15T05:36:15;12.63;;;7.07;;
69240;SDS011;56352;55.750;13.198;2024-02-15T05:38:43;11.52;;;6.10;;
69240;SDS011;56352;55.750;13.198;2024-02-15T05:41:11;12.50;;;6.03;;
69240;SDS011;56352;55.750;13.198;2024-02-15T05:43:38;11.63;;;6.50;;
69240;SDS011;56352;55.750;13.198;2024-02-15T05:46:08;10.90;;;5.68;;
69240;SDS011;56352;55.750;13.198;2024-02-15T05:48:36;10.50;;;6.10;;
69240;SDS011;56352;55.750;13.198;2024-02-15T05:51:04;10.10;;;6.22;;
69240;SDS011;56352;55.750;13.198;2024-02-15T05:53:32;10.98;;;5.78;;
69240;SDS011;56352;55.750;13.198;2024-02-15T05:56:05;10.32;;;5.80;;
69240;SDS011;56352;55.750;13.198;2024-02-15T05:58:39;9.82;;;5.57;;
69240;SDS011;56352;55.750;13.198;2024-02-15T06:01:06;10.25;;;6.13;;
69240;SDS011;56352;55.750;13.198;2024-02-15T06:03:34;11.18;;;5.72;;
69240;SDS011;56352;55.750;13.198;2024-02-15T06:06:08;9.40;;;5.85;;
69240;SDS011;56352;55.750;13.198;2024-02-15T06:08:36;11.70;;;5.95;;
69240;SDS011;56352;55.750;13.198;2024-02-15T06:11:03;12.23;;;6.10;;
69240;SDS011;56352;55.750;13.198;2024-02-15T06:13:31;10.63;;;6.05;;
69240;SDS011;56352;55.750;13.198;2024-02-15T06:15:58;11.23;;;6.10;;
69240;SDS011;56352;55.750;13.198;2024-02-15T06:18:25;10.82;;;5.97;;
69240;SDS011;56352;55.750;13.198;2024-02-15T06:20:56;9.23;;;5.78;;
69240;SDS011;56352;55.750;13.198;2024-02-15T06:23:23;11.55;;;6.10;;
69240;SDS011;56352;55.750;13.198;2024-02-15T06:25:52;10.38;;;5.95;;
69240;SDS011;56352;55.750;13.198;2024-02-15T06:28:20;9.13;;;5.95;;
69240;SDS011;56352;55.750;13.198;2024-02-15T06:31:13;8.95;;;5.40;;
69240;SDS011;56352;55.750;13.198;2024-02-15T06:33:59;9.65;;;5.65;;
69240;SDS011;56352;55.750;13.198;2024-02-15T06:36:52;10.90;;;5.65;;
69240;SDS011;56352;55.750;13.198;2024-02-15T06:39:39;8.43;;;4.95;;
69240;SDS011;56352;55.750;13.198;2024-02-15T06:42:11;8.32;;;4.97;;
69240;SDS011;56352;55.750;13.198;2024-02-15T06:44:43;8.15;;;5.32;;
69240;SDS011;56352;55.750;13.198;2024-02-15T06:47:10;10.73;;;5.60;;
69240;SDS011;56352;55.750;13.198;2024-02-15T06:49:38;9.13;;;5.78;;
69240;SDS011;56352;55.750;13.198;2024-02-15T06:52:10;9.25;;;5.32;;
69240;SDS011;56352;55.750;13.198;2024-02-15T06:54:40;9.02;;;5.25;;
69240;SDS011;56352;55.750;13.198;2024-02-15T06:57:08;8.70;;;5.50;;
69240;SDS011;56352;55.750;13.198;2024-02-15T06:59:35;10.43;;;5.43;;
69240;SDS011;56352;55.750;13.198;2024-02-15T07:02:04;9.45;;;5.40;;
69240;SDS011;56352;55.750;13.198;2024-02-15T07:04:34;8.90;;;5.10;;
69240;SDS011;56352;55.750;13.198;2024-02-15T07:07:03;9.95;;;6.18;;
69240;SDS011;56352;55.750;13.198;2024-02-15T07:09:30;8.95;;;5.40;;
69240;SDS011;56352;55.750;13.198;2024-02-15T07:11:57;9.32;;;5.28;;
69240;SDS011;56352;55.750;13.198;2024-02-15T07:14:25;10.25;;;5.85;;
69240;SDS011;56352;55.750;13.198;2024-02-15T07:16:54;9.32;;;5.30;;
69240;SDS011;56352;55.750;13.198;2024-02-15T07:19:24;8.90;;;5.65;;
69240;SDS011;56352;55.750;13.198;2024-02-15T07:21:52;8.57;;;5.35;;
69240;SDS011;56352;55.750;13.198;2024-02-15T07:24:22;8.00;;;5.03;;
69240;SDS011;56352;55.750;13.198;2024-02-15T07:26:58;11.32;;;5.88;;
69240;SDS011;56352;55.750;13.198;2024-02-15T07:29:25;11.27;;;5.20;;
69240;SDS011;56352;55.750;13.198;2024-02-15T07:31:52;8.98;;;5.10;;
69240;SDS011;56352;55.750;13.198;2024-02-15T07:34:19;10.80;;;6.13;;
69240;SDS011;56352;55.750;13.198;2024-02-15T07:36:46;8.82;;;5.80;;
69240;SDS011;56352;55.750;13.198;2024-02-15T07:39:13;10.32;;;5.75;;
69240;SDS011;56352;55.750;13.198;2024-02-15T07:41:59;11.52;;;6.80;;
69240;SDS011;56352;55.750;13.198;2024-02-15T07:44:26;9.85;;;6.25;;
69240;SDS011;56352;55.750;13.198;2024-02-15T07:46:56;8.98;;;6.00;;
69240;SDS011;56352;55.750;13.198;2024-02-15T07:49:23;12.77;;;7.10;;
69240;SDS011;56352;55.750;13.198;2024-02-15T07:51:51;12.23;;;7.00;;
69240;SDS011;56352;55.750;13.198;2024-02-15T07:54:21;14.25;;;6.68;;
69240;SDS011;56352;55.750;13.198;2024-02-15T07:56:49;11.30;;;6.43;;
69240;SDS011;56352;55.750;13.198;2024-02-15T07:59:16;11.43;;;6.15;;
69240;SDS011;56352;55.750;13.198;2024-02-15T08:01:43;11.40;;;6.05;;
69240;SDS011;56352;55.750;13.198;2024-02-15T08:04:12;10.10;;;6.90;;
69240;SDS011;56352;55.750;13.198;2024-02-15T08:06:42;12.00;;;6.90;;
69240;SDS011;56352;55.750;13.198;2024-02-15T08:09:10;10.23;;;5.88;;
69240;SDS011;56352;55.750;13.198;2024-02-15T08:11:40;12.43;;;6.88;;
69240;SDS011;56352;55.750;13.198;2024-02-15T08:14:07;12.70;;;6.75;;
69240;SDS011;56352;55.750;13.198;2024-02-15T08:16:39;13.02;;;6.25;;
69240;SDS011;56352;55.750;13.198;2024-02-15T08:19:07;10.38;;;6.20;;
69240;SDS011;56352;55.750;13.198;2024-02-15T08:21:34;10.77;;;6.82;;
69240;SDS011;56352;55.750;13.198;2024-02-15T08:24:05;13.63;;;7.00;;
69240;SDS011;56352;55.750;13.198;2024-02-15T08:26:33;11.98;;;6.20;;
69240;SDS011;56352;55.750;13.198;2024-02-15T08:29:01;11.25;;;6.72;;
69240;SDS011;56352;55.750;13.198;2024-02-15T08:31:29;12.00;;;6.90;;
69240;SDS011;56352;55.750;13.198;2024-02-15T08:34:01;11.60;;;6.22;;
69240;SDS011;56352;55.750;13.198;2024-02-15T08:36:29;12.82;;;6.93;;
69240;SDS011;56352;55.750;13.198;2024-02-15T08:38:57;11.23;;;5.47;;
69240;SDS011;56352;55.750;13.198;2024-02-15T08:41:23;12.20;;;5.78;;
69240;SDS011;56352;55.750;13.198;2024-02-15T08:46:20;9.60;;;6.10;;
69240;SDS011;56352;55.750;13.198;2024-02-15T08:48:47;9.82;;;5.88;;
69240;SDS011;56352;55.750;13.198;2024-02-15T08:51:14;9.73;;;5.38;;
69240;SDS011;56352;55.750;13.198;2024-02-15T08:53:42;9.25;;;5.25;;
69240;SDS011;56352;55.750;13.198;2024-02-15T08:56:09;11.40;;;6.70;;
69240;SDS011;56352;55.750;13.198;2024-02-15T08:58:36;8.90;;;5.45;;
69240;SDS011;56352;55.750;13.198;2024-02-15T09:01:05;11.13;;;5.93;;
69240;SDS011;56352;55.750;13.198;2024-02-15T09:03:34;10.75;;;5.88;;
69240;SDS011;56352;55.750;13.198;2024-02-15T09:06:00;9.88;;;5.97;;
69240;SDS011;56352;55.750;13.198;2024-02-15T09:08:30;9.27;;;5.80;;
69240;SDS011;56352;55.750;13.198;2024-02-15T09:10:57;11.38;;;5.60;;
69240;SDS011;56352;55.750;13.198;2024-02-15T09:13:24;12.90;;;6.72;;
69240;SDS011;56352;55.750;13.198;2024-02-15T09:15:51;9.82;;;5.47;;
69240;SDS011;56352;55.750;13.198;2024-02-15T09:18:17;10.98;;;5.47;;
69240;SDS011;56352;55.750;13.198;2024-02-15T09:20:46;10.68;;;5.97;;
69240;SDS011;56352;55.750;13.198;2024-02-15T09:23:15;8.55;;;5.38;;
69240;SDS011;56352;55.750;13.198;2024-02-15T09:25:42;8.77;;;5.53;;
69240;SDS011;56352;55.750;13.198;2024-02-15T09:28:11;8.35;;;5.47;;
69240;SDS011;56352;55.750;13.198;2024-02-15T09:30:40;9.93;;;5.47;;
69240;SDS011;56352;55.750;13.198;2024-02-15T09:33:06;9.95;;;5.82;;
69240;SDS011;56352;55.750;13.198;2024-02-15T09:35:34;9.77;;;5.57;;
69240;SDS011;56352;55.750;13.198;2024-02-15T09:38:01;8.70;;;4.90;;
69240;SDS011;56352;55.750;13.198;2024-02-15T09:40:28;9.98;;;5.25;;
69240;SDS011;56352;55.750;13.198;2024-02-15T09:42:56;10.57;;;5.28;;
69240;SDS011;56352;55.750;13.198;2024-02-15T09:45:23;6.95;;;4.97;;
69240;SDS011;56352;55.750;13.198;2024-02-15T09:47:51;7.83;;;5.30;;
69240;SDS011;56352;55.750;13.198;2024-02-15T09:50:19;6.78;;;4.82;;
69240;SDS011;56352;55.750;13.198;2024-02-15T09:52:50;7.07;;;4.50;;
69240;SDS011;56352;55.750;13.198;2024-02-15T09:55:18;9.32;;;4.40;;
69240;SDS011;56352;55.750;13.198;2024-02-15T09:57:45;8.00;;;4.80;;
69240;SDS011;56352;55.750;13.198;2024-02-15T10:00:13;7.97;;;4.80;;
69240;SDS011;56352;55.750;13.198;2024-02-15T10:02:41;6.45;;;4.45;;
69240;SDS011;56352;55.750;13.198;2024-02-15T10:05:11;7.10;;;4.20;;
69240;SDS011;56352;55.750;13.198;2024-02-15T10:07:42;6.45;;;3.80;;
69240;SDS011;56352;55.750;13.198;2024-02-15T10:10:18;8.48;;;3.88;;
69240;SDS011;56352;55.750;13.198;2024-02-15T10:12:47;8.07;;;4.55;;
69240;SDS011;56352;55.750;13.198;2024-02-15T10:15:27;8.85;;;4.70;;
69240;SDS011;56352;55.750;13.198;2024-02-15T10:18:00;9.02;;;4.65;;
69240;SDS011;56352;55.750;13.198;2024-02-15T10:20:28;9.10;;;4.82;;
69240;SDS011;56352;55.750;13.198;2024-02-15T10:23:08;8.05;;;4.70;;
69240;SDS011;56352;55.750;13.198;2024-02-15T10:25:39;7.53;;;4.80;;
69240;SDS011;56352;55.750;13.198;2024-02-15T10:28:08;7.60;;;4.28;;
69240;SDS011;56352;55.750;13.198;2024-02-15T10:30:36;5.28;;;4.25;;
69240;SDS011;56352;55.750;13.198;2024-02-15T10:33:04;6.15;;;4.35;;
69240;SDS011;56352;55.750;13.198;2024-02-15T10:35:34;7.63;;;4.55;;
69240;SDS011;56352;55.750;13.198;2024-02-15T10:38:05;7.38;;;4.03;;
69240;SDS011;56352;55.750;13.198;2024-02-15T10:40:36;7.68;;;4.93;;
69240;SDS011;56352;55.750;13.198;2024-02-15T10:43:04;6.43;;;4.22;;
69240;SDS011;56352;55.750;13.198;2024-02-15T10:45:35;8.25;;;4.13;;
69240;SDS011;56352;55.750;13.198;2024-02-15T10:48:12;6.75;;;4.35;;
69240;SDS011;56352;55.750;13.198;2024-02-15T10:50:40;6.15;;;4.20;;
69240;SDS011;56352;55.750;13.198;2024-02-15T10:53:31;6.72;;;4.30;;
69240;SDS011;56352;55.750;13.198;2024-02-15T10:55:58;8.43;;;4.05;;
69240;SDS011;56352;55.750;13.198;2024-02-15T10:58:33;7.05;;;4.53;;
69240;SDS011;56352;55.750;13.198;2024-02-15T11:01:05;7.85;;;4.43;;
69240;SDS011;56352;55.750;13.198;2024-02-15T11:03:35;7.35;;;4.30;;
69240;SDS011;56352;55.750;13.198;2024-02-15T11:06:03;7.95;;;4.28;;
69240;SDS011;56352;55.750;13.198;2024-02-15T11:08:33;7.35;;;4.13;;
69240;SDS011;56352;55.750;13.198;2024-02-15T11:11:00;6.47;;;3.75;;
69240;SDS011;56352;55.750;13.198;2024-02-15T11:13:31;6.82;;;4.43;;
69240;SDS011;56352;55.750;13.198;2024-02-15T11:15:57;7.10;;;3.97;;
69240;SDS011;56352;55.750;13.198;2024-02-15T11:21:18;5.65;;;3.80;;
69240;SDS011;56352;55.750;13.198;2024-02-15T11:24:26;5.63;;;4.00;;
69240;SDS011;56352;55.750;13.198;2024-02-15T11:27:03;6.82;;;3.90;;
69240;SDS011;56352;55.750;13.198;2024-02-15T11:35:17;6.40;;;4.00;;
69240;SDS011;56352;55.750;13.198;2024-02-15T11:42:54;4.45;;;3.28;;
69240;SDS011;56352;55.750;13.198;2024-02-15T11:45:20;5.60;;;3.20;;
69240;SDS011;56352;55.750;13.198;2024-02-15T11:47:49;4.65;;;3.03;;
69240;SDS011;56352;55.750;13.198;2024-02-15T11:50:18;5.07;;;2.73;;
69240;SDS011;56352;55.750;13.198;2024-02-15T11:55:22;3.72;;;2.13;;
69240;SDS011;56352;55.750;13.198;2024-02-15T11:57:59;3.67;;;2.65;;
69240;SDS011;56352;55.750;13.198;2024-02-15T12:00:52;3.53;;;2.20;;
69240;SDS011;56352;55.750;13.198;2024-02-15T12:03:44;2.75;;;2.10;;
69240;SDS011;56352;55.750;13.198;2024-02-15T12:06:33;3.13;;;2.28;;
69240;SDS011;56352;55.750;13.198;2024-02-15T12:09:18;3.20;;;2.00;;
69240;SDS011;56352;55.750;13.198;2024-02-15T12:12:05;4.60;;;2.20;;
69240;SDS011;56352;55.750;13.198;2024-02-15T12:14:57;2.58;;;2.00;;
69240;SDS011;56352;55.750;13.198;2024-02-15T12:17:52;2.30;;;1.58;;
69240;SDS011;56352;55.750;13.198;2024-02-15T12:20:37;2.45;;;1.70;;
69240;SDS011;56352;55.750;13.198;2024-02-15T12:23:04;3.40;;;2.08;;
69240;SDS011;56352;55.750;13.198;2024-02-15T12:25:34;2.50;;;1.88;;
69240;SDS011;56352;55.750;13.198;2024-02-15T12:28:02;2.25;;;1.60;;
69240;SDS011;56352;55.750;13.198;2024-02-15T12:30:34;1.80;;;1.45;;
69240;SDS011;56352;55.750;13.198;2024-02-15T12:33:10;3.70;;;1.70;;
69240;SDS011;56352;55.750;13.198;2024-02-15T12:35:38;2.67;;;1.70;;
69240;SDS011;56352;55.750;13.198;2024-02-15T12:38:05;2.80;;;1.80;;
69240;SDS011;56352;55.750;13.198;2024-02-15T12:40:33;2.20;;;1.60;;
69240;SDS011;56352;55.750;13.198;2024-02-15T12:43:00;1.98;;;1.50;;
69240;SDS011;56352;55.750;13.198;2024-02-15T12:45:27;2.92;;;1.60;;
69240;SDS011;56352;55.750;13.198;2024-02-15T12:47:56;1.73;;;1.43;;
69240;SDS011;56352;55.750;13.198;2024-02-15T12:50:27;1.92;;;1.52;;
69240;SDS011;56352;55.750;13.198;2024-02-15T12:52:55;3.65;;;1.40;;
69240;SDS011;56352;55.750;13.198;2024-02-15T12:55:22;2.33;;;1.52;;
69240;SDS011;56352;55.750;13.198;2024-02-15T12:57:51;1.52;;;1.20;;
69240;SDS011;56352;55.750;13.198;2024-02-15T13:00:19;1.80;;;1.40;;
69240;SDS011;56352;55.750;13.198;2024-02-15T13:02:48;1.50;;;1.27;;
69240;SDS011;56352;55.750;13.198;2024-02-15T13:05:19;2.50;;;1.67;;
69240;SDS011;56352;55.750;13.198;2024-02-15T13:07:51;1.55;;;1.30;;
69240;SDS011;56352;55.750;13.198;2024-02-15T13:10:18;3.08;;;1.65;;
69240;SDS011;56352;55.750;13.198;2024-02-15T13:12:44;2.65;;;1.50;;
69240;SDS011;56352;55.750;13.198;2024-02-15T13:15:12;2.33;;;1.55;;
69240;SDS011;56352;55.750;13.198;2024-02-15T13:17:44;2.05;;;1.80;;
69240;SDS011;56352;55.750;13.198;2024-02-15T13:20:20;3.15;;;1.90;;
69240;SDS011;56352;55.750;13.198;2024-02-15T13:22:56;2.55;;;1.67;;
69240;SDS011;56352;55.750;13.198;2024-02-15T13:25:35;2.22;;;1.88;;
69240;SDS011;56352;55.750;13.198;2024-02-15T13:28:11;2.30;;;1.70;;
69240;SDS011;56352;55.750;13.198;2024-02-15T13:33:07;3.35;;;1.50;;
69240;SDS011;56352;55.750;13.198;2024-02-15T13:35:34;2.33;;;1.60;;
69240;SDS011;56352;55.750;13.198;2024-02-15T13:38:03;4.77;;;1.23;;
69240;SDS011;56352;55.750;13.198;2024-02-15T13:40:30;1.38;;;1.10;;
69240;SDS011;56352;55.750;13.198;2024-02-15T13:42:58;1.63;;;1.52;;
69240;SDS011;56352;55.750;13.198;2024-02-15T13:45:29;1.25;;;0.90;;
69240;SDS011;56352;55.750;13.198;2024-02-15T13:47:59;1.15;;;1.05;;
69240;SDS011;56352;55.750;13.198;2024-02-15T13:50:30;0.85;;;0.80;;
69240;SDS011;56352;55.750;13.198;2024-02-15T13:52:57;1.02;;;0.85;;
69240;SDS011;56352;55.750;13.198;2024-02-15T13:55:25;1.73;;;1.00;;
69240;SDS011;56352;55.750;13.198;2024-02-15T13:57:52;1.10;;;0.93;;
69240;SDS011;56352;55.750;13.198;2024-02-15T14:00:19;1.00;;;0.90;;
69240;SDS011;56352;55.750;13.198;2024-02-15T14:02:52;1.73;;;1.10;;
69240;SDS011;56352;55.750;13.198;2024-02-15T14:05:21;1.55;;;1.27;;
69240;SDS011;56352;55.750;13.198;2024-02-15T14:07:52;1.38;;;1.05;;
69240;SDS011;56352;55.750;13.198;2024-02-15T14:10:22;1.33;;;1.20;;
69240;SDS011;56352;55.750;13.198;2024-02-15T14:12:49;2.47;;;1.67;;
69240;SDS011;56352;55.750;13.198;2024-02-15T14:15:19;1.30;;;1.10;;
69240;SDS011;56352;55.750;13.198;2024-02-15T14:17:46;2.35;;;1.23;;
69240;SDS011;56352;55.750;13.198;2024-02-15T14:20:13;1.73;;;1.17;;
69240;SDS011;56352;55.750;13.198;2024-02-15T14:22:44;1.48;;;1.17;;
69240;SDS011;56352;55.750;13.198;2024-02-15T14:25:11;1.30;;;1.10;;
69240;SDS011;56352;55.750;13.198;2024-02-15T14:27:39;1.50;;;1.00;;
69240;SDS011;56352;55.750;13.198;2024-02-15T14:30:07;2.63;;;1.25;;
69240;SDS011;56352;55.750;13.198;2024-02-15T14:32:52;1.50;;;1.00;;
69240;SDS011;56352;55.750;13.198;2024-02-15T14:35:32;1.85;;;1.38;;
69240;SDS011;56352;55.750;13.198;2024-02-15T14:38:03;2.08;;;1.30;;
69240;SDS011;56352;55.750;13.198;2024-02-15T14:40:39;1.92;;;1.10;;
69240;SDS011;56352;55.750;13.198;2024-02-15T14:43:11;2.30;;;1.20;;
69240;SDS011;56352;55.750;13.198;2024-02-15T14:45:45;3.10;;;1.40;;
69240;SDS011;56352;55.750;13.198;2024-02-15T14:48:12;1.90;;;1.30;;
69240;SDS011;56352;55.750;13.198;2024-02-15T14:50:40;2.17;;;1.27;;
69240;SDS011;56352;55.750;13.198;2024-02-15T14:53:07;2.42;;;1.30;;
69240;SDS011;56352;55.750;13.198;2024-02-15T14:55:34;2.65;;;1.30;;
69240;SDS011;56352;55.750;13.198;2024-02-15T14:58:08;1.70;;;1.38;;
69240;SDS011;56352;55.750;13.198;2024-02-15T15:00:39;3.50;;;1.40;;
69240;SDS011;56352;55.750;13.198;2024-02-15T15:05:35;2.22;;;1.20;;